Time;durP1;ratioP1;P1;durP2;ratioP2;P2;SDS_P1;SDS_P2;PMS_P1;PMS_P2;Temp;Humidity;BMP_temperature;BMP_pressure;BME280_temperature;BME280_humidity;BME280_pressure;Samples;Min_cycle;Max_cycle;Signal;HPM_P1;HPM_P2
2022/07/16 00:03:22;;;;;;;;;;;;;;;15.83;59.28;99879.78;5104656;28;19970;-73
2022/07/16 00:05:51;;;;;;;;;;;;;;;15.90;59.13;99881.38;5097263;28;19924;-73
2022/07/16 00:08:21;;;;;;;;;;;;;;;15.82;59.03;99880.66;5099475;28;19924;-73
2022/07/16 00:10:49;;;;;;;;;;;;;;;15.78;59.68;99879.03;5095738;28;19924;-73
2022/07/16 00:13:18;;;;;;;;;;;;;;;15.70;59.82;99877.44;5109491;28;19931;-73
2022/07/16 00:15:47;;;;;;;;;;;;;;;15.57;60.33;99881.13;5108543;28;19931;-73
2022/07/16 00:20:54;;;;;;;;;;;;;;;15.64;60.11;99878.44;5110186;28;19924;-73
2022/07/16 00:23:23;;;;;;;;;;;;;;;15.51;60.20;99874.38;5112499;28;19927;-73
2022/07/16 00:25:52;;;;;;;;;;;;;;;15.39;59.94;99869.41;5112826;28;19930;-73
2022/07/16 00:28:20;;;;;;;;;;;;;;;15.30;59.87;99867.84;5103827;28;19924;-73
2022/07/16 00:30:49;;;;;;;;;;;;;;;15.26;60.38;99867.94;5095226;28;19990;-73
2022/07/16 00:33:17;;;;;;;;;;;;;;;15.29;60.42;99863.56;5107939;28;19981;-73
2022/07/16 00:35:45;;;;;;;;;;;;;;;15.35;59.94;99862.63;5108122;28;19932;-73
2022/07/16 00:38:14;;;;;;;;;;;;;;;15.48;60.18;99863.31;5111339;28;19969;-73
2022/07/16 00:40:44;;;;;;;;;;;;;;;15.56;59.59;99856.28;5112445;28;19931;-74
2022/07/16 00:43:13;;;;;;;;;;;;;;;15.60;59.37;99863.91;5106023;28;19923;-73
2022/07/16 00:45:42;;;;;;;;;;;;;;;15.51;59.74;99858.94;5107853;28;19928;-73
2022/07/16 00:48:11;;;;;;;;;;;;;;;15.26;60.18;99873.91;5099679;28;19928;-73
2022/07/16 00:50:40;;;;;;;;;;;;;;;15.16;60.44;99871.50;5097424;28;19928;-73
2022/07/16 00:53:09;;;;;;;;;;;;;;;15.09;60.75;99869.91;5102649;28;19927;-73
2022/07/16 00:55:38;;;;;;;;;;;;;;;14.97;61.19;99875.25;5113879;28;19932;-73
2022/07/16 00:58:08;;;;;;;;;;;;;;;14.77;61.58;99873.81;5103623;28;19970;-72
2022/07/16 01:00:37;;;;;;;;;;;;;;;14.69;62.21;99870.50;5096093;28;19943;-73
2022/07/16 01:03:06;;;;;;;;;;;;;;;14.64;62.11;99867.16;5101058;28;20369;-73
2022/07/16 01:05:35;;;;;;;;;;;;;;;14.59;63.04;99868.94;5107228;28;19924;-74
2022/07/16 01:08:03;;;;;;;;;;;;;;;14.60;62.69;99873.22;5108715;28;19924;-73
2022/07/16 01:10:33;;;;;;;;;;;;;;;14.64;62.66;99868.88;5105172;28;19963;-74
2022/07/16 01:13:03;;;;;;;;;;;;;;;14.61;62.40;99867.19;5100279;28;19968;-73
2022/07/16 01:15:33;;;;;;;;;;;;;;;14.65;62.29;99868.88;5103818;28;19934;-73
2022/07/16 01:18:01;;;;;;;;;;;;;;;14.61;62.40;99876.63;5114615;28;19981;-73
2022/07/16 01:20:30;;;;;;;;;;;;;;;14.55;62.60;99872.44;5097330;28;19924;-73
2022/07/16 01:23:01;;;;;;;;;;;;;;;14.56;63.19;99868.16;5098875;28;19977;-73
2022/07/16 01:25:32;;;;;;;;;;;;;;;14.51;62.80;99875.06;5099225;28;19951;-73
2022/07/16 01:28:00;;;;;;;;;;;;;;;14.47;63.35;99876.81;5112242;28;19924;-73
2022/07/16 01:30:28;;;;;;;;;;;;;;;14.49;62.96;99872.50;5106886;28;19932;-73
2022/07/16 01:32:57;;;;;;;;;;;;;;;14.51;63.34;99881.06;5111007;28;19951;-73
2022/07/16 01:35:25;;;;;;;;;;;;;;;14.61;63.15;99867.19;5112428;28;19959;-73
2022/07/16 01:37:54;;;;;;;;;;;;;;;14.73;62.74;99856.72;5107966;28;19924;-74
2022/07/16 01:40:22;;;;;;;;;;;;;;;14.89;62.68;99872.78;5104383;28;20355;-73
2022/07/16 01:42:52;;;;;;;;;;;;;;;15.09;61.65;99867.34;5105749;28;19932;-73
2022/07/16 01:45:21;;;;;;;;;;;;;;;15.17;61.81;99862.91;5104980;28;19924;-74
2022/07/16 01:47:50;;;;;;;;;;;;;;;15.32;61.44;99862.66;5116490;28;19924;-73
2022/07/16 01:50:18;;;;;;;;;;;;;;;15.39;60.91;99861.69;5103081;28;19934;-73
2022/07/16 01:52:47;;;;;;;;;;;;;;;15.38;60.70;99852.25;5104403;27;20021;-73
2022/07/16 01:55:16;;;;;;;;;;;;;;;15.42;60.58;99851.34;5106708;28;19924;-73
2022/07/16 01:57:44;;;;;;;;;;;;;;;15.48;60.40;99853.81;5104536;28;19923;-73
2022/07/16 02:00:15;;;;;;;;;;;;;;;15.51;60.42;99848.63;5102143;28;19924;-74
2022/07/16 02:02:43;;;;;;;;;;;;;;;15.49;60.00;99849.53;5109722;28;19950;-73
2022/07/16 02:05:12;;;;;;;;;;;;;;;15.47;60.12;99857.28;5109953;28;20336;-72
2022/07/16 02:07:41;;;;;;;;;;;;;;;15.38;60.14;99859.97;5099818;28;20584;-73
2022/07/16 02:10:10;;;;;;;;;;;;;;;15.34;60.62;99871.19;5111677;28;20335;-73
2022/07/16 02:12:38;;;;;;;;;;;;;;;15.15;60.94;99864.66;5110538;28;19977;-73
2022/07/16 02:15:08;;;;;;;;;;;;;;;15.04;61.66;99871.72;5101577;28;19930;-74
2022/07/16 02:17:38;;;;;;;;;;;;;;;15.05;60.93;99868.25;5100411;28;19927;-73
2022/07/16 02:20:08;;;;;;;;;;;;;;;15.03;61.49;99870.84;5105502;28;19977;-73
2022/07/16 02:22:36;;;;;;;;;;;;;;;15.03;61.54;99864.84;5107346;28;20430;-73
2022/07/16 02:25:05;;;;;;;;;;;;;;;15.13;61.51;99861.28;5099824;28;20358;-73
2022/07/16 02:27:34;;;;;;;;;;;;;;;15.20;61.30;99873.16;5108680;28;19977;-73
2022/07/16 02:30:03;;;;;;;;;;;;;;;15.17;60.94;99863.75;5110562;28;19923;-73
2022/07/16 02:32:31;;;;;;;;;;;;;;;14.85;61.28;99870.28;5097596;28;19927;-74
2022/07/16 02:35:01;;;;;;;;;;;;;;;14.47;62.16;99869.09;5108662;28;19928;-73
2022/07/16 02:37:29;;;;;;;;;;;;;;;14.41;62.28;99870.91;5099566;28;19928;-73
2022/07/16 02:40:00;;;;;;;;;;;;;;;14.30;61.69;99881.31;5096508;28;20370;-72
2022/07/16 02:42:29;;;;;;;;;;;;;;;14.22;61.55;99877.13;5110081;28;20401;-73
2022/07/16 02:44:58;;;;;;;;;;;;;;;14.00;62.43;99876.53;5112142;28;19942;-73
2022/07/16 02:47:26;;;;;;;;;;;;;;;13.76;62.88;99866.53;5105953;28;20394;-73
2022/07/16 02:49:55;;;;;;;;;;;;;;;13.67;64.05;99874.31;5108199;28;19928;-73
2022/07/16 02:52:25;;;;;;;;;;;;;;;13.51;64.30;99870.22;5100781;28;20027;-73
2022/07/16 02:54:54;;;;;;;;;;;;;;;13.60;64.62;99876.09;5094602;28;20373;-73
2022/07/16 02:57:22;;;;;;;;;;;;;;;13.77;64.41;99883.63;5107541;28;19972;-73
2022/07/16 02:59:52;;;;;;;;;;;;;;;13.82;64.73;99884.44;5113435;28;20022;-73
2022/07/16 03:02:20;;;;;;;;;;;;;;;13.90;65.05;99890.31;5095203;28;19981;-73
2022/07/16 03:04:48;;;;;;;;;;;;;;;13.94;64.45;99897.13;5102473;28;19970;-73
2022/07/16 03:07:17;;;;;;;;;;;;;;;13.87;65.40;99892.91;5091412;28;19939;-73
2022/07/16 03:09:46;;;;;;;;;;;;;;;13.88;65.24;99895.47;5093344;28;19924;-72
2022/07/16 03:12:15;;;;;;;;;;;;;;;13.84;65.56;99896.38;5110052;28;20014;-70
2022/07/16 03:14:43;;;;;;;;;;;;;;;13.85;65.14;99898.06;5112201;28;19969;-70
2022/07/16 03:17:12;;;;;;;;;;;;;;;13.77;64.95;99899.03;5096421;28;19930;-72
2022/07/16 03:19:40;;;;;;;;;;;;;;;13.72;65.05;99903.34;5093026;28;19974;-70
2022/07/16 03:22:09;;;;;;;;;;;;;;;13.73;65.26;99903.31;5093430;28;20442;-72
2022/07/16 03:24:38;;;;;;;;;;;;;;;13.88;64.76;99912.56;5112442;28;19924;-73
2022/07/16 03:27:08;;;;;;;;;;;;;;;13.83;65.01;99904.06;5101026;28;19931;-70
2022/07/16 03:29:36;;;;;;;;;;;;;;;13.93;65.18;99896.28;5114462;28;19931;-70
2022/07/16 03:32:04;;;;;;;;;;;;;;;14.07;64.79;99896.09;5104296;28;19925;-70
2022/07/16 03:34:33;;;;;;;;;;;;;;;14.00;64.98;99902.19;5100877;28;19923;-73
2022/07/16 03:37:02;;;;;;;;;;;;;;;13.98;65.12;99903.91;5095037;28;19924;-73
2022/07/16 03:39:30;;;;;;;;;;;;;;;14.08;65.21;99905.53;5112981;28;20365;-70
2022/07/16 03:41:59;;;;;;;;;;;;;;;14.12;65.33;99902.03;5095953;28;19931;-70
2022/07/16 03:44:29;;;;;;;;;;;;;;;14.30;65.37;99906.97;5114494;28;20392;-70
2022/07/16 03:46:57;;;;;;;;;;;;;;;14.48;64.54;99900.78;5107314;28;19923;-70
2022/07/16 03:49:26;;;;;;;;;;;;;;;14.57;64.53;99905.78;5094099;28;19924;-71
2022/07/16 03:51:54;;;;;;;;;;;;;;;14.70;63.95;99908.19;5103166;28;19928;-74
2022/07/16 03:54:23;;;;;;;;;;;;;;;14.75;63.51;99903.84;5094371;28;19969;-73
2022/07/16 03:56:51;;;;;;;;;;;;;;;14.82;63.24;99906.31;5104528;28;19924;-69
2022/07/16 03:59:20;;;;;;;;;;;;;;;14.90;62.64;99909.63;5109700;28;19928;-70
2022/07/16 04:01:49;;;;;;;;;;;;;;;14.98;62.63;99907.78;5105196;28;19967;-73
2022/07/16 04:04:18;;;;;;;;;;;;;;;15.02;62.01;99901.75;5092046;28;19977;-70
2022/07/16 04:06:46;;;;;;;;;;;;;;;15.12;62.47;99900.69;5091838;28;19924;-73
2022/07/16 04:09:14;;;;;;;;;;;;;;;15.21;62.41;99903.16;5105799;28;20008;-70
2022/07/16 04:11:43;;;;;;;;;;;;;;;15.29;61.94;99899.56;5102677;28;19977;-73
2022/07/16 04:14:11;;;;;;;;;;;;;;;15.34;61.94;99900.34;5110124;28;19931;-73
2022/07/16 04:16:41;;;;;;;;;;;;;;;15.42;61.86;99895.06;5100879;28;19967;-73
2022/07/16 04:19:13;;;;;;;;;;;;;;;15.49;61.33;99895.84;5098559;28;19928;-74
2022/07/16 04:21:41;;;;;;;;;;;;;;;15.59;61.14;99898.25;5110712;28;19935;-72
2022/07/16 04:24:10;;;;;;;;;;;;;;;15.67;61.05;99896.38;5115742;28;19951;-70
2022/07/16 04:26:38;;;;;;;;;;;;;;;15.72;60.58;99893.69;5101002;28;19986;-71
2022/07/16 04:29:07;;;;;;;;;;;;;;;15.79;60.51;99892.72;5106273;28;19924;-70
2022/07/16 04:31:35;;;;;;;;;;;;;;;15.83;60.44;99892.66;5104637;28;19928;-70
2022/07/16 04:34:04;;;;;;;;;;;;;;;15.88;60.55;99888.25;5098101;28;20015;-70
2022/07/16 04:36:33;;;;;;;;;;;;;;;15.96;60.40;99883.81;5104254;28;19986;-70
2022/07/16 04:39:02;;;;;;;;;;;;;;;16.08;60.12;99883.56;5108696;28;19934;-70
2022/07/16 04:41:30;;;;;;;;;;;;;;;16.13;59.39;99888.63;5106712;28;19950;-73
2022/07/16 04:43:59;;;;;;;;;;;;;;;16.22;59.43;99885.03;5113260;28;19924;-74
2022/07/16 04:46:27;;;;;;;;;;;;;;;16.32;59.21;99882.22;5113142;27;19924;-73
2022/07/16 04:48:55;;;;;;;;;;;;;;;16.46;58.96;99884.53;5117721;28;19931;-74
2022/07/16 04:51:24;;;;;;;;;;;;;;;16.60;58.54;99882.53;5108052;28;19977;-74
2022/07/16 04:53:54;;;;;;;;;;;;;;;16.73;58.29;99877.06;5115366;28;20377;-74
2022/07/16 04:56:22;;;;;;;;;;;;;;;16.89;58.15;99875.00;5096498;28;19935;-74
2022/07/16 04:58:52;;;;;;;;;;;;;;;16.97;58.03;99878.22;5095142;28;20337;-74
2022/07/16 05:01:20;;;;;;;;;;;;;;;17.08;57.75;99871.09;5099311;28;19924;-74
2022/07/16 05:03:49;;;;;;;;;;;;;;;17.22;57.36;99874.19;5096388;28;19924;-74
2022/07/16 05:06:17;;;;;;;;;;;;;;;17.34;56.98;99879.06;5107660;28;19925;-74
2022/07/16 05:08:46;;;;;;;;;;;;;;;17.42;56.48;99881.41;5101050;28;19928;-74
2022/07/16 05:11:15;;;;;;;;;;;;;;;17.54;56.56;99875.16;5099466;28;19925;-74
2022/07/16 05:13:44;;;;;;;;;;;;;;;17.65;56.36;99878.28;5096483;28;19945;-74
2022/07/16 05:16:13;;;;;;;;;;;;;;;17.75;56.19;99878.00;5104625;28;19969;-71
2022/07/16 05:18:41;;;;;;;;;;;;;;;17.78;56.05;99869.34;5103590;28;19930;-70
2022/07/16 05:21:09;;;;;;;;;;;;;;;17.81;55.88;99874.41;5106742;28;19970;-71
2022/07/16 05:23:38;;;;;;;;;;;;;;;17.90;55.74;99869.84;5106216;28;19977;-70
2022/07/16 05:26:06;;;;;;;;;;;;;;;18.06;55.59;99870.28;5116517;28;19949;-71
2022/07/16 05:28:36;;;;;;;;;;;;;;;18.13;55.05;99876.97;5109306;28;19924;-71
2022/07/16 05:31:05;;;;;;;;;;;;;;;18.24;55.09;99881.81;5108287;27;19964;-71
2022/07/16 05:33:33;;;;;;;;;;;;;;;18.42;54.65;99882.13;5105387;28;19924;-71
2022/07/16 05:36:02;;;;;;;;;;;;;;;18.53;54.38;99874.09;5104773;28;20421;-74
2022/07/16 05:38:30;;;;;;;;;;;;;;;18.61;53.89;99869.53;5109561;28;19924;-74
2022/07/16 05:40:59;;;;;;;;;;;;;;;18.70;53.46;99875.28;5114727;28;19966;-74
2022/07/16 05:43:27;;;;;;;;;;;;;;;18.76;53.03;99878.56;5108966;28;20442;-75
2022/07/16 05:45:58;;;;;;;;;;;;;;;18.84;52.87;99872.25;5096628;28;19963;-75
2022/07/16 05:48:26;;;;;;;;;;;;;;;18.90;52.32;99866.91;5113909;28;19924;-71
2022/07/16 05:50:55;;;;;;;;;;;;;;;19.02;52.56;99865.66;5098133;28;20388;-74
2022/07/16 05:53:24;;;;;;;;;;;;;;;19.21;52.25;99874.53;5094632;28;19946;-75
2022/07/16 05:55:52;;;;;;;;;;;;;;;19.37;51.89;99873.16;5095896;28;19932;-71
2022/07/16 05:58:20;;;;;;;;;;;;;;;19.49;51.49;99875.31;5111362;28;19924;-72
2022/07/16 06:00:49;;;;;;;;;;;;;;;19.61;51.24;99871.47;5106139;28;19932;-71
2022/07/16 06:03:19;;;;;;;;;;;;;;;19.69;50.63;99879.84;5105438;28;20302;-71
2022/07/16 06:05:47;;;;;;;;;;;;;;;19.77;50.46;99886.41;5099162;28;20409;-70
2022/07/16 06:08:16;;;;;;;;;;;;;;;19.89;49.86;99877.41;5103083;28;20331;-71
2022/07/16 06:10:44;;;;;;;;;;;;;;;20.00;49.74;99881.28;5104662;28;19924;-71
2022/07/16 06:13:13;;;;;;;;;;;;;;;20.15;49.42;99884.22;5112378;28;19988;-71
2022/07/16 06:15:41;;;;;;;;;;;;;;;20.29;49.10;99885.44;5108252;28;19928;-71
2022/07/16 06:18:09;;;;;;;;;;;;;;;20.41;49.10;99884.16;5095887;28;19970;-71
2022/07/16 06:20:39;;;;;;;;;;;;;;;20.49;49.12;99884.72;5103300;28;19923;-75
2022/07/16 06:23:08;;;;;;;;;;;;;;;20.56;48.72;99887.00;5112455;28;19924;-75
2022/07/16 06:25:37;;;;;;;;;;;;;;;20.60;48.70;99886.00;5114842;28;20412;-75
2022/07/16 06:28:07;;;;;;;;;;;;;;;20.66;49.04;99887.47;5104312;27;19924;-74
2022/07/16 06:30:35;;;;;;;;;;;;;;;20.75;48.85;99887.16;5104792;28;19924;-76
2022/07/16 06:33:04;;;;;;;;;;;;;;;20.81;48.39;99879.13;5101487;28;19924;-75
2022/07/16 06:35:32;;;;;;;;;;;;;;;20.86;48.26;99873.75;5100033;28;20436;-75
2022/07/16 06:38:02;;;;;;;;;;;;;;;21.08;48.40;99874.63;5101699;28;19931;-75
2022/07/16 06:40:31;;;;;;;;;;;;;;;21.19;47.89;99878.47;5101881;28;19924;-75
2022/07/16 06:42:59;;;;;;;;;;;;;;;21.29;47.15;99879.78;5099101;28;19969;-75
2022/07/16 06:45:27;;;;;;;;;;;;;;;21.38;46.82;99877.72;5097216;28;20327;-74
2022/07/16 06:47:56;;;;;;;;;;;;;;;21.27;46.40;99866.03;5112206;28;19955;-75
2022/07/16 06:50:24;;;;;;;;;;;;;;;21.33;46.04;99873.53;5111008;28;19985;-75
2022/07/16 06:52:53;;;;;;;;;;;;;;;21.47;45.41;99872.13;5111088;28;19931;-74
2022/07/16 06:55:23;;;;;;;;;;;;;;;21.69;44.59;99872.94;5103062;28;19931;-75
2022/07/16 06:57:51;;;;;;;;;;;;;;;21.82;43.61;99863.66;5104265;28;19927;-75
2022/07/16 07:00:20;;;;;;;;;;;;;;;21.90;43.27;99869.41;5108293;28;19969;-75
2022/07/16 07:02:48;;;;;;;;;;;;;;;21.97;43.00;99858.69;5102616;28;19931;-75
2022/07/16 07:05:17;;;;;;;;;;;;;;;22.03;42.27;99862.75;5099149;28;20438;-74
2022/07/16 07:07:47;;;;;;;;;;;;;;;22.05;42.03;99871.34;5098673;28;20403;-71
2022/07/16 07:10:15;;;;;;;;;;;;;;;22.17;41.81;99875.97;5112973;28;19947;-70
2022/07/16 07:12:45;;;;;;;;;;;;;;;22.12;42.09;99871.91;5098762;28;20007;-70
2022/07/16 07:15:14;;;;;;;;;;;;;;;22.08;41.77;99880.75;5102891;28;19923;-70
2022/07/16 07:17:42;;;;;;;;;;;;;;;22.04;41.74;99874.84;5097316;28;19985;-70
2022/07/16 07:20:12;;;;;;;;;;;;;;;22.14;40.83;99878.75;5098288;28;20492;-70
2022/07/16 07:22:40;;;;;;;;;;;;;;;22.14;40.30;99873.53;5107175;28;20392;-71
2022/07/16 07:25:09;;;;;;;;;;;;;;;22.28;39.79;99873.75;5103994;28;19924;-75
2022/07/16 07:27:38;;;;;;;;;;;;;;;22.44;39.65;99866.94;5094514;28;19931;-75
2022/07/16 07:30:09;;;;;;;;;;;;;;;22.62;39.33;99868.72;5098917;28;19977;-75
2022/07/16 07:32:38;;;;;;;;;;;;;;;22.96;39.06;99869.72;5100703;28;20011;-77
2022/07/16 07:35:07;;;;;;;;;;;;;;;23.12;38.40;99868.06;5100319;28;20015;-76
2022/07/16 07:37:35;;;;;;;;;;;;;;;23.44;38.26;99872.56;5114872;28;19923;-75
2022/07/16 07:40:04;;;;;;;;;;;;;;;23.59;37.64;99869.16;5097311;28;19967;-75
2022/07/16 07:42:32;;;;;;;;;;;;;;;23.59;37.68;99874.38;5097734;28;19969;-75
2022/07/16 07:45:01;;;;;;;;;;;;;;;23.52;36.58;99865.19;5108372;28;19924;-76
2022/07/16 07:47:31;;;;;;;;;;;;;;;23.52;35.92;99867.78;5098864;28;19931;-75
2022/07/16 07:50:00;;;;;;;;;;;;;;;23.58;36.00;99867.50;5104612;28;19923;-74
2022/07/16 07:52:29;;;;;;;;;;;;;;;23.82;35.99;99868.84;5099420;28;19970;-74
2022/07/16 07:54:57;;;;;;;;;;;;;;;23.89;35.70;99861.53;5105625;28;20516;-75
2022/07/16 07:57:25;;;;;;;;;;;;;;;23.89;35.80;99862.38;5109632;28;20373;-74
2022/07/16 07:59:54;;;;;;;;;;;;;;;24.00;35.97;99865.25;5114332;28;19934;-75
2022/07/16 08:02:22;;;;;;;;;;;;;;;23.82;36.21;99866.25;5114202;28;19924;-73
2022/07/16 08:04:53;;;;;;;;;;;;;;;23.91;36.58;99855.31;5097625;28;19954;-74
2022/07/16 08:07:21;;;;;;;;;;;;;;;24.06;36.37;99858.88;5094320;28;19955;-74
2022/07/16 08:09:49;;;;;;;;;;;;;;;24.24;36.15;99857.06;5112732;28;19923;-75
2022/07/16 08:12:18;;;;;;;;;;;;;;;24.38;35.69;99849.34;5114166;28;19938;-73
2022/07/16 08:14:46;;;;;;;;;;;;;;;24.21;35.34;99852.06;5109178;28;20304;-72
2022/07/16 08:17:15;;;;;;;;;;;;;;;24.16;35.89;99843.63;5102954;28;19969;-73
2022/07/16 08:19:43;;;;;;;;;;;;;;;24.05;35.56;99845.91;5098978;28;19924;-73
2022/07/16 08:22:13;;;;;;;;;;;;;;;24.05;35.75;99840.69;5096000;28;19947;-74
2022/07/16 08:27:20;;;;;;;;;;;;;;;23.95;35.61;99840.34;5113867;28;20022;-70
2022/07/16 08:29:48;;;;;;;;;;;;;;;24.01;35.95;99840.03;5112952;28;20322;-70
2022/07/16 08:32:17;;;;;;;;;;;;;;;24.14;36.71;99840.25;5114040;28;19976;-70
2022/07/16 08:34:46;;;;;;;;;;;;;;;24.42;36.54;99837.84;5108376;28;19928;-73
2022/07/16 08:37:16;;;;;;;;;;;;;;;24.68;36.38;99837.22;5101430;28;20492;-74
2022/07/16 08:39:45;;;;;;;;;;;;;;;24.86;36.25;99840.63;5100095;28;19971;-73
2022/07/16 08:42:14;;;;;;;;;;;;;;;24.91;36.08;99831.56;5113828;28;20366;-74
2022/07/16 08:44:46;;;;;;;;;;;;;;;25.00;35.93;99838.06;5103782;28;19931;-75
2022/07/16 08:47:16;;;;;;;;;;;;;;;24.83;35.52;99836.41;5093561;28;19928;-75
2022/07/16 08:49:45;;;;;;;;;;;;;;;24.71;35.41;99831.00;5093084;28;19928;-74
2022/07/16 08:52:13;;;;;;;;;;;;;;;24.79;36.09;99828.81;5096980;28;20311;-73
2022/07/16 08:54:45;;;;;;;;;;;;;;;25.05;36.77;99831.63;5104571;28;19924;-72
2022/07/16 08:57:20;;;;;;;;;;;;;;;25.12;36.28;99825.13;5112375;28;20361;-73
2022/07/16 08:59:48;;;;;;;;;;;;;;;25.43;36.41;99821.56;5092592;28;19975;-73
2022/07/16 09:02:17;;;;;;;;;;;;;;;25.74;36.18;99825.84;5091460;28;20011;-73
2022/07/16 09:04:45;;;;;;;;;;;;;;;25.93;35.64;99823.78;5092625;28;19942;-74
2022/07/16 09:07:14;;;;;;;;;;;;;;;26.08;35.16;99830.69;5097706;27;19977;-73
2022/07/16 09:09:45;;;;;;;;;;;;;;;26.10;35.15;99826.19;5102994;28;19935;-73
2022/07/16 09:12:13;;;;;;;;;;;;;;;26.09;34.73;99827.13;5097239;28;19924;-72
2022/07/16 09:14:41;;;;;;;;;;;;;;;26.15;34.69;99816.31;5111284;28;19928;-73
2022/07/16 09:17:10;;;;;;;;;;;;;;;26.22;34.58;99806.31;5113350;28;20277;-73
2022/07/16 09:19:40;;;;;;;;;;;;;;;26.30;34.51;99810.09;5102485;28;20412;-74
2022/07/16 09:22:10;;;;;;;;;;;;;;;26.60;34.18;99808.16;5106893;28;19967;-75
2022/07/16 09:24:40;;;;;;;;;;;;;;;26.83;34.22;99805.84;5112167;28;20380;-73
2022/07/16 09:27:11;;;;;;;;;;;;;;;26.86;34.05;99800.41;5096305;28;19924;-74
2022/07/16 09:29:45;;;;;;;;;;;;;;;26.77;33.79;99798.41;5097492;28;19923;-73
2022/07/16 09:32:14;;;;;;;;;;;;;;;26.74;34.00;99803.81;5096014;28;20281;-75
2022/07/16 09:34:43;;;;;;;;;;;;;;;26.73;33.52;99802.13;5111260;27;19931;-73
2022/07/16 09:37:11;;;;;;;;;;;;;;;26.55;34.32;99799.75;5099485;28;19924;-73
2022/07/16 09:39:47;;;;;;;;;;;;;;;26.24;34.66;99800.03;5107489;28;19924;-70
2022/07/16 09:42:19;;;;;;;;;;;;;;;26.06;35.63;99793.28;5106525;28;19973;-70
2022/07/16 09:44:47;;;;;;;;;;;;;;;25.83;35.46;99801.72;5109789;28;20297;-71
2022/07/16 09:47:19;;;;;;;;;;;;;;;25.67;35.01;99793.16;5108290;28;20436;-70
2022/07/16 09:49:53;;;;;;;;;;;;;;;25.76;35.13;99792.56;5113952;28;19928;-71
2022/07/16 09:52:29;;;;;;;;;;;;;;;26.11;34.96;99786.03;5113822;28;19928;-71
2022/07/16 09:54:57;;;;;;;;;;;;;;;26.51;35.33;99798.25;5115575;27;19924;-70
2022/07/16 09:57:28;;;;;;;;;;;;;;;26.93;34.98;99784.19;5115232;28;20010;-71
2022/07/16 09:59:58;;;;;;;;;;;;;;;27.22;33.70;99790.13;5114372;28;19923;-70
2022/07/16 10:02:39;;;;;;;;;;;;;;;27.49;34.30;99793.53;5100826;27;20370;-70
2022/07/16 10:05:08;;;;;;;;;;;;;;;27.70;33.89;99785.97;5104976;28;20276;-70
2022/07/16 10:07:37;;;;;;;;;;;;;;;27.75;33.24;99782.06;5116525;28;19930;-70
2022/07/16 10:10:06;;;;;;;;;;;;;;;27.55;33.23;99790.47;5100456;28;19928;-71
2022/07/16 10:12:36;;;;;;;;;;;;;;;27.53;33.31;99783.66;5095791;28;19935;-73
2022/07/16 10:15:07;;;;;;;;;;;;;;;27.44;33.30;99779.03;5098968;28;19932;-70
2022/07/16 10:17:37;;;;;;;;;;;;;;;27.50;33.09;99782.06;5112910;28;19943;-71
2022/07/16 10:20:09;;;;;;;;;;;;;;;27.52;33.51;99777.56;5109179;28;19930;-70
2022/07/16 10:22:40;;;;;;;;;;;;;;;27.56;33.22;99771.19;5092517;28;19942;-71
2022/07/16 10:25:13;;;;;;;;;;;;;;;27.64;32.74;99755.72;5100090;28;19925;-71
2022/07/16 10:27:42;;;;;;;;;;;;;;;27.56;32.19;99751.97;5096037;28;20023;-73
2022/07/16 10:30:12;;;;;;;;;;;;;;;27.70;32.03;99765.81;5094738;28;19932;-71
2022/07/16 10:32:52;;;;;;;;;;;;;;;27.78;32.15;99766.13;5097153;28;19947;-72
2022/07/16 10:35:27;;;;;;;;;;;;;;;27.91;33.12;99764.31;5116062;27;19924;-70
2022/07/16 10:38:04;;;;;;;;;;;;;;;27.93;32.35;99757.16;5111028;28;19962;-72
2022/07/16 10:41:05;;;;;;;;;;;;;;;28.02;31.75;99760.97;5096729;28;20355;-72
2022/07/16 10:43:35;;;;;;;;;;;;;;;28.13;31.78;99757.56;5102807;28;19969;-70
2022/07/16 10:46:05;;;;;;;;;;;;;;;28.21;31.98;99755.22;5101021;28;19924;-70
2022/07/16 10:48:48;;;;;;;;;;;;;;;28.30;31.89;99754.56;5104069;28;19985;-70
2022/07/16 10:51:17;;;;;;;;;;;;;;;28.05;31.29;99759.91;5108874;28;19932;-71
2022/07/16 10:53:56;;;;;;;;;;;;;;;28.10;31.56;99736.81;5110415;28;19953;-70
2022/07/16 10:56:32;;;;;;;;;;;;;;;28.33;31.82;99741.22;5099802;28;19928;-70
2022/07/16 10:59:02;;;;;;;;;;;;;;;28.54;31.33;99748.38;5095234;28;20015;-73
2022/07/16 11:01:30;;;;;;;;;;;;;;;28.40;30.91;99748.53;5104822;28;20270;-73
2022/07/16 11:03:59;;;;;;;;;;;;;;;28.12;31.65;99763.78;5108603;28;19924;-70
2022/07/16 11:06:27;;;;;;;;;;;;;;;28.17;31.56;99753.78;5108395;28;19924;-72
2022/07/16 11:08:56;;;;;;;;;;;;;;;28.05;31.57;99765.16;5109303;28;20011;-70
2022/07/16 11:11:31;;;;;;;;;;;;;;;28.05;31.66;99752.03;5111857;28;19924;-70
2022/07/16 11:14:02;;;;;;;;;;;;;;;28.25;32.14;99746.16;5096347;28;19924;-74
2022/07/16 11:16:31;;;;;;;;;;;;;;;28.14;31.39;99748.75;5092951;28;20342;-72
2022/07/16 11:18:59;;;;;;;;;;;;;;;28.22;31.33;99756.91;5092654;28;19928;-73
2022/07/16 11:21:28;;;;;;;;;;;;;;;28.41;31.25;99747.56;5097949;28;19924;-70
2022/07/16 11:23:58;;;;;;;;;;;;;;;28.51;31.10;99753.00;5101083;28;19931;-71
2022/07/16 11:26:27;;;;;;;;;;;;;;;28.40;30.99;99750.31;5095093;28;20015;-70
2022/07/16 11:28:56;;;;;;;;;;;;;;;28.42;31.63;99740.53;5105171;28;20274;-72
2022/07/16 11:31:26;;;;;;;;;;;;;;;28.23;31.19;99740.19;5093707;28;20285;-72
2022/07/16 11:33:57;;;;;;;;;;;;;;;28.01;31.19;99747.94;5099607;28;19934;-72
2022/07/16 11:36:27;;;;;;;;;;;;;;;27.67;31.70;99742.41;5107324;28;19959;-73
2022/07/16 11:38:57;;;;;;;;;;;;;;;27.61;31.50;99734.97;5095499;28;20340;-71
2022/07/16 11:41:25;;;;;;;;;;;;;;;27.78;31.80;99747.75;5097535;28;19924;-71
2022/07/16 11:43:54;;;;;;;;;;;;;;;27.87;31.73;99733.97;5096777;28;19924;-72
2022/07/16 11:46:29;;;;;;;;;;;;;;;28.07;31.89;99732.59;5108764;28;19935;-71
2022/07/16 11:48:59;;;;;;;;;;;;;;;28.11;32.35;99738.47;5098770;28;19978;-72
2022/07/16 11:51:29;;;;;;;;;;;;;;;27.92;31.79;99747.63;5094379;28;20431;-72
2022/07/16 11:53:58;;;;;;;;;;;;;;;27.60;32.12;99733.28;5102139;28;19924;-74
2022/07/16 11:56:33;;;;;;;;;;;;;;;27.42;32.43;99746.84;5108702;28;19924;-73
2022/07/16 11:59:01;;;;;;;;;;;;;;;27.22;32.35;99758.66;5097642;28;19931;-71
2022/07/16 12:01:38;;;;;;;;;;;;;;;27.11;32.84;99754.13;5105850;28;19927;-71
2022/07/16 12:04:07;;;;;;;;;;;;;;;27.00;33.04;99747.94;5112776;28;19989;-71
2022/07/16 12:06:36;;;;;;;;;;;;;;;27.05;32.86;99740.59;5114380;28;19924;-71
2022/07/16 12:09:04;;;;;;;;;;;;;;;27.31;33.18;99752.78;5100016;28;19924;-74
2022/07/16 12:11:35;;;;;;;;;;;;;;;27.79;33.65;99744.16;5094165;28;19969;-72
2022/07/16 12:14:04;;;;;;;;;;;;;;;27.95;32.45;99729.97;5103102;28;19924;-72
2022/07/16 12:16:33;;;;;;;;;;;;;;;27.81;31.80;99744.09;5098737;28;19924;-72
2022/07/16 12:19:07;;;;;;;;;;;;;;;27.67;32.03;99745.03;5094185;28;20328;-71
2022/07/16 12:21:37;;;;;;;;;;;;;;;27.46;31.67;99749.16;5098552;28;19955;-74
2022/07/16 12:24:06;;;;;;;;;;;;;;;27.29;32.06;99744.19;5104903;28;20289;-74
2022/07/16 12:26:35;;;;;;;;;;;;;;;27.16;32.12;99741.56;5113817;28;19924;-75
2022/07/16 12:29:06;;;;;;;;;;;;;;;26.95;32.12;99743.00;5108306;28;19931;-73
2022/07/16 12:31:37;;;;;;;;;;;;;;;26.71;32.64;99738.50;5093627;28;20332;-74
2022/07/16 12:34:06;;;;;;;;;;;;;;;26.78;32.85;99734.59;5094554;28;20373;-74
2022/07/16 12:36:35;;;;;;;;;;;;;;;26.86;32.71;99734.91;5095462;28;19932;-72
2022/07/16 12:39:05;;;;;;;;;;;;;;;26.89;33.01;99745.19;5108270;28;20297;-74
2022/07/16 12:41:36;;;;;;;;;;;;;;;26.87;32.54;99736.59;5117366;28;19973;-73
2022/07/16 12:44:07;;;;;;;;;;;;;;;26.87;32.43;99734.00;5096236;28;19974;-74
2022/07/16 12:46:37;;;;;;;;;;;;;;;26.89;32.41;99734.72;5097505;28;19959;-71
2022/07/16 12:49:07;;;;;;;;;;;;;;;26.89;32.56;99734.72;5109213;28;19923;-71
2022/07/16 12:51:36;;;;;;;;;;;;;;;26.89;32.55;99739.97;5097160;28;20026;-71
2022/07/16 12:54:06;;;;;;;;;;;;;;;26.92;32.31;99734.53;5102877;28;19963;-72
2022/07/16 12:59:14;;;;;;;;;;;;;;;27.15;32.96;99725.94;5100723;28;19925;-71
2022/07/16 13:01:43;;;;;;;;;;;;;;;27.22;33.22;99729.81;5101512;28;19985;-73
2022/07/16 13:04:13;;;;;;;;;;;;;;;27.14;32.67;99729.50;5106828;28;20377;-71
2022/07/16 13:06:42;;;;;;;;;;;;;;;27.11;32.78;99725.28;5107051;28;20030;-72
2022/07/16 13:09:10;;;;;;;;;;;;;;;27.13;33.15;99727.84;5109055;28;19923;-73